sensor_id;sensor_type;location;lat;lon;timestamp;P1;durP1;ratioP1;P2;durP2;ratioP2
74335;SDS011;62755;-33.398;-70.572;2023-02-10T00:01:30;92.03;;;75.65;;
74335;SDS011;62755;-33.398;-70.572;2023-02-10T00:04:21;85.82;;;75.88;;
74335;SDS011;62755;-33.398;-70.572;2023-02-10T00:07:10;88.90;;;76.88;;
74335;SDS011;62755;-33.398;-70.572;2023-02-10T00:09:59;90.85;;;75.50;;
74335;SDS011;62755;-33.398;-70.572;2023-02-10T00:12:49;94.97;;;76.53;;
74335;SDS011;62755;-33.398;-70.572;2023-02-10T00:15:38;88.70;;;78.45;;
74335;SDS011;62755;-33.398;-70.572;2023-02-10T00:18:27;88.25;;;77.13;;
74335;SDS011;62755;-33.398;-70.572;2023-02-10T00:21:19;97.82;;;77.20;;
74335;SDS011;62755;-33.398;-70.572;2023-02-10T00:24:08;95.60;;;74.97;;
74335;SDS011;62755;-33.398;-70.572;2023-02-10T00:26:58;85.38;;;74.50;;
74335;SDS011;62755;-33.398;-70.572;2023-02-10T00:29:47;85.57;;;74.85;;
74335;SDS011;62755;-33.398;-70.572;2023-02-10T00:32:36;92.22;;;75.60;;
74335;SDS011;62755;-33.398;-70.572;2023-02-10T00:35:26;86.43;;;73.10;;
74335;SDS011;62755;-33.398;-70.572;2023-02-10T00:38:17;87.50;;;75.65;;
74335;SDS011;62755;-33.398;-70.572;2023-02-10T00:41:07;98.13;;;76.45;;
74335;SDS011;62755;-33.398;-70.572;2023-02-10T00:43:57;96.35;;;76.35;;
74335;SDS011;62755;-33.398;-70.572;2023-02-10T00:46:47;91.13;;;76.93;;
74335;SDS011;62755;-33.398;-70.572;2023-02-10T00:49:36;94.88;;;78.03;;
74335;SDS011;62755;-33.398;-70.572;2023-02-10T00:52:25;87.68;;;76.07;;
74335;SDS011;62755;-33.398;-70.572;2023-02-10T00:55:17;95.18;;;77.07;;
74335;SDS011;62755;-33.398;-70.572;2023-02-10T00:58:06;103.90;;;83.68;;
74335;SDS011;62755;-33.398;-70.572;2023-02-10T01:00:55;112.55;;;84.00;;
74335;SDS011;62755;-33.398;-70.572;2023-02-10T01:03:45;90.72;;;77.35;;
74335;SDS011;62755;-33.398;-70.572;2023-02-10T01:06:34;113.78;;;86.38;;
74335;SDS011;62755;-33.398;-70.572;2023-02-10T01:09:23;106.25;;;82.25;;
74335;SDS011;62755;-33.398;-70.572;2023-02-10T01:12:15;91.35;;;77.43;;
74335;SDS011;62755;-33.398;-70.572;2023-02-10T01:15:04;100.40;;;76.60;;
74335;SDS011;62755;-33.398;-70.572;2023-02-10T01:17:54;94.88;;;76.18;;
74335;SDS011;62755;-33.398;-70.572;2023-02-10T01:20:43;89.57;;;75.22;;
74335;SDS011;62755;-33.398;-70.572;2023-02-10T01:23:33;92.90;;;75.30;;
74335;SDS011;62755;-33.398;-70.572;2023-02-10T01:26:22;93.43;;;77.28;;
74335;SDS011;62755;-33.398;-70.572;2023-02-10T01:29:13;97.47;;;77.72;;
74335;SDS011;62755;-33.398;-70.572;2023-02-10T01:32:03;91.45;;;77.45;;
74335;SDS011;62755;-33.398;-70.572;2023-02-10T01:34:52;90.50;;;76.28;;
74335;SDS011;62755;-33.398;-70.572;2023-02-10T01:37:41;86.70;;;76.28;;
74335;SDS011;62755;-33.398;-70.572;2023-02-10T01:40:31;93.35;;;78.88;;
74335;SDS011;62755;-33.398;-70.572;2023-02-10T01:43:20;96.22;;;77.70;;
74335;SDS011;62755;-33.398;-70.572;2023-02-10T01:46:11;92.70;;;78.20;;
74335;SDS011;62755;-33.398;-70.572;2023-02-10T01:49:02;91.40;;;79.30;;
74335;SDS011;62755;-33.398;-70.572;2023-02-10T01:51:56;98.65;;;83.38;;
74335;SDS011;62755;-33.398;-70.572;2023-02-10T01:54:49;103.05;;;86.40;;
74335;SDS011;62755;-33.398;-70.572;2023-02-10T01:57:42;100.57;;;82.18;;
74335;SDS011;62755;-33.398;-70.572;2023-02-10T02:00:32;92.90;;;79.22;;
74335;SDS011;62755;-33.398;-70.572;2023-02-10T02:03:24;92.60;;;74.95;;
74335;SDS011;62755;-33.398;-70.572;2023-02-10T02:06:14;97.10;;;77.68;;
74335;SDS011;62755;-33.398;-70.572;2023-02-10T02:09:03;93.90;;;77.57;;
74335;SDS011;62755;-33.398;-70.572;2023-02-10T02:11:54;94.20;;;75.00;;
74335;SDS011;62755;-33.398;-70.572;2023-02-10T02:14:50;102.53;;;77.38;;
74335;SDS011;62755;-33.398;-70.572;2023-02-10T02:17:44;102.10;;;78.15;;
74335;SDS011;62755;-33.398;-70.572;2023-02-10T02:24:14;94.53;;;76.22;;
74335;SDS011;62755;-33.398;-70.572;2023-02-10T02:30:26;100.55;;;76.30;;
74335;SDS011;62755;-33.398;-70.572;2023-02-10T02:33:36;107.15;;;78.93;;
74335;SDS011;62755;-33.398;-70.572;2023-02-10T02:36:32;100.13;;;78.50;;
74335;SDS011;62755;-33.398;-70.572;2023-02-10T02:39:26;96.80;;;78.50;;
74335;SDS011;62755;-33.398;-70.572;2023-02-10T02:42:17;98.75;;;78.93;;
74335;SDS011;62755;-33.398;-70.572;2023-02-10T02:45:08;95.60;;;78.93;;
74335;SDS011;62755;-33.398;-70.572;2023-02-10T02:48:09;98.15;;;80.60;;
74335;SDS011;62755;-33.398;-70.572;2023-02-10T02:51:16;103.93;;;80.32;;
74335;SDS011;62755;-33.398;-70.572;2023-02-10T02:54:16;101.10;;;81.03;;
74335;SDS011;62755;-33.398;-70.572;2023-02-10T02:57:15;94.82;;;79.43;;
74335;SDS011;62755;-33.398;-70.572;2023-02-10T03:00:10;95.32;;;78.78;;
74335;SDS011;62755;-33.398;-70.572;2023-02-10T03:03:03;102.45;;;82.00;;
74335;SDS011;62755;-33.398;-70.572;2023-02-10T03:05:53;101.82;;;81.82;;
74335;SDS011;62755;-33.398;-70.572;2023-02-10T03:08:47;98.00;;;81.03;;
74335;SDS011;62755;-33.398;-70.572;2023-02-10T03:11:37;97.50;;;79.05;;
74335;SDS011;62755;-33.398;-70.572;2023-02-10T03:14:26;101.70;;;79.65;;
74335;SDS011;62755;-33.398;-70.572;2023-02-10T03:17:16;96.57;;;76.07;;
74335;SDS011;62755;-33.398;-70.572;2023-02-10T03:20:06;85.80;;;76.40;;
74335;SDS011;62755;-33.398;-70.572;2023-02-10T03:22:56;95.43;;;77.28;;
74335;SDS011;62755;-33.398;-70.572;2023-02-10T03:25:47;97.35;;;78.35;;
74335;SDS011;62755;-33.398;-70.572;2023-02-10T03:31:56;99.25;;;82.50;;
74335;SDS011;62755;-33.398;-70.572;2023-02-10T03:34:47;105.22;;;85.55;;
74335;SDS011;62755;-33.398;-70.572;2023-02-10T03:37:37;96.32;;;80.15;;
74335;SDS011;62755;-33.398;-70.572;2023-02-10T03:40:26;100.40;;;78.63;;
74335;SDS011;62755;-33.398;-70.572;2023-02-10T03:43:17;91.32;;;76.95;;
74335;SDS011;62755;-33.398;-70.572;2023-02-10T03:46:08;99.28;;;77.85;;
74335;SDS011;62755;-33.398;-70.572;2023-02-10T03:48:58;97.32;;;77.00;;
74335;SDS011;62755;-33.398;-70.572;2023-02-10T03:51:47;105.28;;;77.72;;
74335;SDS011;62755;-33.398;-70.572;2023-02-10T03:54:36;87.85;;;75.78;;
74335;SDS011;62755;-33.398;-70.572;2023-02-10T03:57:25;89.53;;;77.38;;
74335;SDS011;62755;-33.398;-70.572;2023-02-10T04:00:17;91.63;;;75.25;;
74335;SDS011;62755;-33.398;-70.572;2023-02-10T04:03:07;94.47;;;75.60;;
74335;SDS011;62755;-33.398;-70.572;2023-02-10T04:05:56;84.28;;;74.28;;
74335;SDS011;62755;-33.398;-70.572;2023-02-10T04:08:46;94.47;;;75.75;;
74335;SDS011;62755;-33.398;-70.572;2023-02-10T04:11:35;90.45;;;77.05;;
74335;SDS011;62755;-33.398;-70.572;2023-02-10T04:14:25;95.10;;;78.68;;
74335;SDS011;62755;-33.398;-70.572;2023-02-10T04:17:16;97.60;;;77.18;;
74335;SDS011;62755;-33.398;-70.572;2023-02-10T04:20:06;91.10;;;76.45;;
74335;SDS011;62755;-33.398;-70.572;2023-02-10T04:22:56;82.38;;;73.07;;
74335;SDS011;62755;-33.398;-70.572;2023-02-10T04:25:45;97.32;;;76.22;;
74335;SDS011;62755;-33.398;-70.572;2023-02-10T04:28:35;93.28;;;74.90;;
74335;SDS011;62755;-33.398;-70.572;2023-02-10T04:31:24;95.47;;;76.72;;
74335;SDS011;62755;-33.398;-70.572;2023-02-10T04:34:15;92.43;;;74.90;;
74335;SDS011;62755;-33.398;-70.572;2023-02-10T04:37:04;91.82;;;75.57;;
74335;SDS011;62755;-33.398;-70.572;2023-02-10T04:39:54;90.47;;;74.43;;
74335;SDS011;62755;-33.398;-70.572;2023-02-10T04:42:43;85.57;;;76.22;;
74335;SDS011;62755;-33.398;-70.572;2023-02-10T04:45:32;97.40;;;74.43;;
74335;SDS011;62755;-33.398;-70.572;2023-02-10T04:48:22;89.60;;;74.13;;
74335;SDS011;62755;-33.398;-70.572;2023-02-10T04:51:13;86.25;;;74.88;;
74335;SDS011;62755;-33.398;-70.572;2023-02-10T04:54:02;91.65;;;73.82;;
74335;SDS011;62755;-33.398;-70.572;2023-02-10T04:56:52;91.15;;;75.85;;
74335;SDS011;62755;-33.398;-70.572;2023-02-10T04:59:41;94.43;;;76.40;;
74335;SDS011;62755;-33.398;-70.572;2023-02-10T05:02:31;91.82;;;74.95;;
74335;SDS011;62755;-33.398;-70.572;2023-02-10T05:05:21;93.82;;;73.25;;
74335;SDS011;62755;-33.398;-70.572;2023-02-10T05:08:13;88.78;;;72.15;;
74335;SDS011;62755;-33.398;-70.572;2023-02-10T05:11:05;85.60;;;70.43;;
74335;SDS011;62755;-33.398;-70.572;2023-02-10T05:13:54;89.97;;;71.20;;
74335;SDS011;62755;-33.398;-70.572;2023-02-10T05:16:44;85.10;;;69.90;;
74335;SDS011;62755;-33.398;-70.572;2023-02-10T05:19:34;89.47;;;69.28;;
74335;SDS011;62755;-33.398;-70.572;2023-02-10T05:22:23;83.38;;;69.45;;
74335;SDS011;62755;-33.398;-70.572;2023-02-10T05:25:17;80.53;;;68.22;;
74335;SDS011;62755;-33.398;-70.572;2023-02-10T05:28:11;91.53;;;68.57;;
74335;SDS011;62755;-33.398;-70.572;2023-02-10T05:31:01;81.28;;;68.10;;
74335;SDS011;62755;-33.398;-70.572;2023-02-10T05:33:52;74.88;;;66.43;;
74335;SDS011;62755;-33.398;-70.572;2023-02-10T05:36:41;85.50;;;68.18;;
74335;SDS011;62755;-33.398;-70.572;2023-02-10T05:39:31;73.72;;;65.40;;
74335;SDS011;62755;-33.398;-70.572;2023-02-10T05:42:22;77.20;;;65.47;;
74335;SDS011;62755;-33.398;-70.572;2023-02-10T05:45:11;83.97;;;63.92;;
74335;SDS011;62755;-33.398;-70.572;2023-02-10T05:48:00;76.32;;;61.78;;
74335;SDS011;62755;-33.398;-70.572;2023-02-10T05:50:50;75.97;;;60.10;;
74335;SDS011;62755;-33.398;-70.572;2023-02-10T05:53:39;73.22;;;61.40;;
74335;SDS011;62755;-33.398;-70.572;2023-02-10T05:56:29;71.53;;;58.67;;
74335;SDS011;62755;-33.398;-70.572;2023-02-10T05:59:20;74.15;;;57.90;;
74335;SDS011;62755;-33.398;-70.572;2023-02-10T06:02:09;69.03;;;57.33;;
74335;SDS011;62755;-33.398;-70.572;2023-02-10T06:04:58;71.90;;;57.17;;
74335;SDS011;62755;-33.398;-70.572;2023-02-10T06:07:48;63.28;;;54.20;;
74335;SDS011;62755;-33.398;-70.572;2023-02-10T06:10:37;75.53;;;56.92;;
74335;SDS011;62755;-33.398;-70.572;2023-02-10T06:13:26;67.78;;;55.92;;
74335;SDS011;62755;-33.398;-70.572;2023-02-10T06:16:17;64.05;;;55.45;;
74335;SDS011;62755;-33.398;-70.572;2023-02-10T06:19:07;64.32;;;54.50;;
74335;SDS011;62755;-33.398;-70.572;2023-02-10T06:21:56;69.68;;;55.42;;
74335;SDS011;62755;-33.398;-70.572;2023-02-10T06:24:45;66.55;;;53.25;;
74335;SDS011;62755;-33.398;-70.572;2023-02-10T06:27:34;61.30;;;51.13;;
74335;SDS011;62755;-33.398;-70.572;2023-02-10T06:30:24;77.00;;;52.08;;
74335;SDS011;62755;-33.398;-70.572;2023-02-10T06:33:15;63.40;;;55.33;;
74335;SDS011;62755;-33.398;-70.572;2023-02-10T06:36:05;65.57;;;54.75;;
74335;SDS011;62755;-33.398;-70.572;2023-02-10T06:38:55;66.25;;;54.22;;
74335;SDS011;62755;-33.398;-70.572;2023-02-10T06:41:44;63.40;;;53.33;;
74335;SDS011;62755;-33.398;-70.572;2023-02-10T06:44:33;65.22;;;54.22;;
74335;SDS011;62755;-33.398;-70.572;2023-02-10T06:47:23;67.32;;;52.20;;
74335;SDS011;62755;-33.398;-70.572;2023-02-10T06:53:04;61.13;;;50.95;;
74335;SDS011;62755;-33.398;-70.572;2023-02-10T06:55:55;62.20;;;50.78;;
74335;SDS011;62755;-33.398;-70.572;2023-02-10T06:58:44;61.38;;;51.55;;
74335;SDS011;62755;-33.398;-70.572;2023-02-10T07:01:34;66.60;;;49.67;;
74335;SDS011;62755;-33.398;-70.572;2023-02-10T07:04:23;54.65;;;47.15;;
74335;SDS011;62755;-33.398;-70.572;2023-02-10T07:07:14;57.70;;;45.58;;
74335;SDS011;62755;-33.398;-70.572;2023-02-10T07:10:04;53.78;;;45.60;;
74335;SDS011;62755;-33.398;-70.572;2023-02-10T07:12:54;62.00;;;46.75;;
74335;SDS011;62755;-33.398;-70.572;2023-02-10T07:15:44;62.45;;;45.25;;
74335;SDS011;62755;-33.398;-70.572;2023-02-10T07:18:33;54.88;;;44.10;;
74335;SDS011;62755;-33.398;-70.572;2023-02-10T07:21:23;53.90;;;44.67;;
74335;SDS011;62755;-33.398;-70.572;2023-02-10T07:24:14;50.38;;;42.45;;
74335;SDS011;62755;-33.398;-70.572;2023-02-10T07:27:04;53.05;;;45.30;;
74335;SDS011;62755;-33.398;-70.572;2023-02-10T07:29:54;56.63;;;43.80;;
74335;SDS011;62755;-33.398;-70.572;2023-02-10T07:32:43;61.53;;;47.10;;
74335;SDS011;62755;-33.398;-70.572;2023-02-10T07:35:33;51.33;;;44.25;;
74335;SDS011;62755;-33.398;-70.572;2023-02-10T07:38:22;58.97;;;45.35;;
74335;SDS011;62755;-33.398;-70.572;2023-02-10T07:41:13;59.58;;;46.83;;
74335;SDS011;62755;-33.398;-70.572;2023-02-10T07:44:02;54.78;;;45.28;;
74335;SDS011;62755;-33.398;-70.572;2023-02-10T07:46:52;62.15;;;49.13;;
74335;SDS011;62755;-33.398;-70.572;2023-02-10T07:49:41;54.00;;;45.33;;
74335;SDS011;62755;-33.398;-70.572;2023-02-10T07:52:31;51.70;;;44.10;;
74335;SDS011;62755;-33.398;-70.572;2023-02-10T07:55:20;50.60;;;43.42;;
74335;SDS011;62755;-33.398;-70.572;2023-02-10T07:58:11;53.63;;;43.92;;
74335;SDS011;62755;-33.398;-70.572;2023-02-10T08:01:05;59.10;;;43.92;;
74335;SDS011;62755;-33.398;-70.572;2023-02-10T08:03:54;56.33;;;43.58;;
74335;SDS011;62755;-33.398;-70.572;2023-02-10T08:06:44;50.92;;;44.55;;
74335;SDS011;62755;-33.398;-70.572;2023-02-10T08:09:33;55.30;;;44.83;;
74335;SDS011;62755;-33.398;-70.572;2023-02-10T08:12:23;53.47;;;45.25;;
74335;SDS011;62755;-33.398;-70.572;2023-02-10T08:15:14;57.95;;;44.58;;
74335;SDS011;62755;-33.398;-70.572;2023-02-10T08:18:04;58.38;;;45.92;;
74335;SDS011;62755;-33.398;-70.572;2023-02-10T08:20:53;50.45;;;43.58;;
74335;SDS011;62755;-33.398;-70.572;2023-02-10T08:23:46;55.88;;;44.05;;
74335;SDS011;62755;-33.398;-70.572;2023-02-10T08:26:40;55.38;;;43.05;;
74335;SDS011;62755;-33.398;-70.572;2023-02-10T08:29:30;51.88;;;44.75;;
74335;SDS011;62755;-33.398;-70.572;2023-02-10T08:32:21;55.70;;;46.10;;
74335;SDS011;62755;-33.398;-70.572;2023-02-10T08:35:10;49.70;;;43.90;;
74335;SDS011;62755;-33.398;-70.572;2023-02-10T08:38:00;50.85;;;45.08;;
74335;SDS011;62755;-33.398;-70.572;2023-02-10T08:40:53;51.53;;;44.25;;
74335;SDS011;62755;-33.398;-70.572;2023-02-10T08:43:43;60.92;;;46.72;;
74335;SDS011;62755;-33.398;-70.572;2023-02-10T08:46:33;55.92;;;46.00;;
74335;SDS011;62755;-33.398;-70.572;2023-02-10T08:49:24;51.83;;;44.20;;
74335;SDS011;62755;-33.398;-70.572;2023-02-10T08:52:14;57.70;;;44.63;;
74335;SDS011;62755;-33.398;-70.572;2023-02-10T08:55:04;58.28;;;43.50;;
74335;SDS011;62755;-33.398;-70.572;2023-02-10T08:57:53;50.20;;;44.30;;
74335;SDS011;62755;-33.398;-70.572;2023-02-10T09:00:42;52.33;;;43.40;;
74335;SDS011;62755;-33.398;-70.572;2023-02-10T09:03:32;59.22;;;43.90;;
74335;SDS011;62755;-33.398;-70.572;2023-02-10T09:06:24;50.53;;;42.33;;
74335;SDS011;62755;-33.398;-70.572;2023-02-10T09:09:16;54.10;;;41.67;;
74335;SDS011;62755;-33.398;-70.572;2023-02-10T09:12:08;49.92;;;41.45;;
74335;SDS011;62755;-33.398;-70.572;2023-02-10T09:14:58;49.15;;;39.45;;
74335;SDS011;62755;-33.398;-70.572;2023-02-10T09:17:47;48.28;;;40.22;;
74335;SDS011;62755;-33.398;-70.572;2023-02-10T09:20:37;49.70;;;40.53;;
74335;SDS011;62755;-33.398;-70.572;2023-02-10T09:23:28;51.60;;;41.35;;
74335;SDS011;62755;-33.398;-70.572;2023-02-10T09:26:17;53.55;;;43.78;;
74335;SDS011;62755;-33.398;-70.572;2023-02-10T09:29:07;58.47;;;46.72;;
74335;SDS011;62755;-33.398;-70.572;2023-02-10T09:31:58;57.70;;;46.38;;
74335;SDS011;62755;-33.398;-70.572;2023-02-10T09:34:47;53.80;;;47.72;;
74335;SDS011;62755;-33.398;-70.572;2023-02-10T09:37:37;62.28;;;48.55;;
74335;SDS011;62755;-33.398;-70.572;2023-02-10T09:40:30;69.93;;;51.00;;
74335;SDS011;62755;-33.398;-70.572;2023-02-10T09:43:26;59.33;;;51.42;;
74335;SDS011;62755;-33.398;-70.572;2023-02-10T09:46:34;62.95;;;51.63;;
74335;SDS011;62755;-33.398;-70.572;2023-02-10T09:53:04;57.95;;;50.30;;
74335;SDS011;62755;-33.398;-70.572;2023-02-10T09:58:51;58.53;;;48.28;;
74335;SDS011;62755;-33.398;-70.572;2023-02-10T10:01:43;59.45;;;48.00;;
74335;SDS011;62755;-33.398;-70.572;2023-02-10T10:04:36;58.38;;;46.00;;
74335;SDS011;62755;-33.398;-70.572;2023-02-10T10:07:28;60.65;;;46.92;;
74335;SDS011;62755;-33.398;-70.572;2023-02-10T10:10:23;62.50;;;46.25;;
74335;SDS011;62755;-33.398;-70.572;2023-02-10T10:13:18;59.30;;;45.50;;
74335;SDS011;62755;-33.398;-70.572;2023-02-10T10:16:17;55.83;;;43.38;;
74335;SDS011;62755;-33.398;-70.572;2023-02-10T10:19:16;50.08;;;42.58;;
74335;SDS011;62755;-33.398;-70.572;2023-02-10T10:22:19;55.03;;;43.80;;
74335;SDS011;62755;-33.398;-70.572;2023-02-10T10:25:26;52.97;;;44.33;;
74335;SDS011;62755;-33.398;-70.572;2023-02-10T10:28:36;65.85;;;45.83;;
74335;SDS011;62755;-33.398;-70.572;2023-02-10T10:31:36;58.72;;;45.63;;
74335;SDS011;62755;-33.398;-70.572;2023-02-10T10:34:29;54.10;;;44.05;;
74335;SDS011;62755;-33.398;-70.572;2023-02-10T10:37:20;57.20;;;44.08;;
74335;SDS011;62755;-33.398;-70.572;2023-02-10T10:40:13;59.80;;;43.78;;
74335;SDS011;62755;-33.398;-70.572;2023-02-10T10:43:08;55.42;;;42.60;;
74335;SDS011;62755;-33.398;-70.572;2023-02-10T10:46:10;60.45;;;43.10;;
74335;SDS011;62755;-33.398;-70.572;2023-02-10T10:49:03;87.05;;;48.22;;
74335;SDS011;62755;-33.398;-70.572;2023-02-10T10:51:52;69.10;;;45.28;;
74335;SDS011;62755;-33.398;-70.572;2023-02-10T10:54:42;73.47;;;46.13;;
74335;SDS011;62755;-33.398;-70.572;2023-02-10T10:57:31;90.20;;;48.55;;
74335;SDS011;62755;-33.398;-70.572;2023-02-10T11:00:21;76.18;;;45.65;;
74335;SDS011;62755;-33.398;-70.572;2023-02-10T11:03:14;67.28;;;44.70;;
74335;SDS011;62755;-33.398;-70.572;2023-02-10T11:06:05;61.35;;;44.22;;
74335;SDS011;62755;-33.398;-70.572;2023-02-10T11:08:58;56.45;;;43.00;;
74335;SDS011;62755;-33.398;-70.572;2023-02-10T11:11:49;50.45;;;40.38;;
74335;SDS011;62755;-33.398;-70.572;2023-02-10T11:14:41;55.88;;;39.92;;
74335;SDS011;62755;-33.398;-70.572;2023-02-10T11:17:33;49.83;;;39.60;;
74335;SDS011;62755;-33.398;-70.572;2023-02-10T11:20:28;52.65;;;39.58;;
74335;SDS011;62755;-33.398;-70.572;2023-02-10T11:23:18;54.13;;;39.80;;
74335;SDS011;62755;-33.398;-70.572;2023-02-10T11:26:17;53.92;;;39.25;;
74335;SDS011;62755;-33.398;-70.572;2023-02-10T11:29:09;56.72;;;39.22;;
74335;SDS011;62755;-33.398;-70.572;2023-02-10T11:32:00;52.30;;;39.30;;
74335;SDS011;62755;-33.398;-70.572;2023-02-10T11:34:50;50.55;;;39.15;;
74335;SDS011;62755;-33.398;-70.572;2023-02-10T11:37:42;51.70;;;38.85;;
74335;SDS011;62755;-33.398;-70.572;2023-02-10T11:40:49;50.50;;;39.25;;
74335;SDS011;62755;-33.398;-70.572;2023-02-10T11:43:40;50.30;;;40.72;;
74335;SDS011;62755;-33.398;-70.572;2023-02-10T11:46:30;50.67;;;38.03;;
74335;SDS011;62755;-33.398;-70.572;2023-02-10T11:49:20;50.70;;;40.20;;
74335;SDS011;62755;-33.398;-70.572;2023-02-10T11:52:09;53.17;;;41.35;;
74335;SDS011;62755;-33.398;-70.572;2023-02-10T11:55:01;54.75;;;39.88;;
74335;SDS011;62755;-33.398;-70.572;2023-02-10T11:57:52;51.15;;;37.40;;
74335;SDS011;62755;-33.398;-70.572;2023-02-10T12:01:06;44.83;;;38.55;;
74335;SDS011;62755;-33.398;-70.572;2023-02-10T12:04:03;48.05;;;39.60;;
74335;SDS011;62755;-33.398;-70.572;2023-02-10T12:07:05;55.75;;;43.67;;
74335;SDS011;62755;-33.398;-70.572;2023-02-10T12:10:08;72.03;;;47.35;;
74335;SDS011;62755;-33.398;-70.572;2023-02-10T12:13:09;68.10;;;51.35;;
74335;SDS011;62755;-33.398;-70.572;2023-02-10T12:16:09;62.60;;;52.88;;
74335;SDS011;62755;-33.398;-70.572;2023-02-10T12:19:08;75.78;;;57.03;;
74335;SDS011;62755;-33.398;-70.572;2023-02-10T12:22:10;72.78;;;56.08;;
74335;SDS011;62755;-33.398;-70.572;2023-02-10T12:25:12;74.63;;;59.22;;
74335;SDS011;62755;-33.398;-70.572;2023-02-10T12:28:09;77.13;;;60.30;;
74335;SDS011;62755;-33.398;-70.572;2023-02-10T12:31:10;72.10;;;56.33;;
74335;SDS011;62755;-33.398;-70.572;2023-02-10T12:34:09;75.38;;;54.20;;
74335;SDS011;62755;-33.398;-70.572;2023-02-10T12:37:13;67.57;;;53.28;;
74335;SDS011;62755;-33.398;-70.572;2023-02-10T12:40:27;70.40;;;53.95;;
74335;SDS011;62755;-33.398;-70.572;2023-02-10T12:43:39;72.10;;;56.05;;
74335;SDS011;62755;-33.398;-70.572;2023-02-10T12:46:40;66.68;;;55.10;;
74335;SDS011;62755;-33.398;-70.572;2023-02-10T12:49:40;75.30;;;55.30;;
74335;SDS011;62755;-33.398;-70.572;2023-02-10T12:52:40;67.65;;;53.65;;
74335;SDS011;62755;-33.398;-70.572;2023-02-10T12:55:37;75.18;;;56.03;;
74335;SDS011;62755;-33.398;-70.572;2023-02-10T12:58:37;71.15;;;56.83;;
74335;SDS011;62755;-33.398;-70.572;2023-02-10T13:01:30;82.72;;;55.85;;
74335;SDS011;62755;-33.398;-70.572;2023-02-10T13:04:22;82.47;;;55.38;;
74335;SDS011;62755;-33.398;-70.572;2023-02-10T13:07:17;84.07;;;54.90;;
74335;SDS011;62755;-33.398;-70.572;2023-02-10T13:10:18;78.85;;;53.47;;
74335;SDS011;62755;-33.398;-70.572;2023-02-10T13:13:17;79.93;;;53.95;;
74335;SDS011;62755;-33.398;-70.572;2023-02-10T13:16:09;68.22;;;51.42;;
74335;SDS011;62755;-33.398;-70.572;2023-02-10T13:19:03;68.90;;;50.08;;
74335;SDS011;62755;-33.398;-70.572;2023-02-10T13:22:02;68.50;;;50.85;;
74335;SDS011;62755;-33.398;-70.572;2023-02-10T13:24:59;67.65;;;51.45;;
74335;SDS011;62755;-33.398;-70.572;2023-02-10T13:27:58;73.65;;;49.90;;
74335;SDS011;62755;-33.398;-70.572;2023-02-10T13:31:07;67.60;;;49.05;;
74335;SDS011;62755;-33.398;-70.572;2023-02-10T13:34:14;65.93;;;48.13;;
74335;SDS011;62755;-33.398;-70.572;2023-02-10T13:37:08;91.57;;;50.50;;
74335;SDS011;62755;-33.398;-70.572;2023-02-10T13:40:03;68.85;;;51.53;;
74335;SDS011;62755;-33.398;-70.572;2023-02-10T13:43:01;62.10;;;50.38;;
74335;SDS011;62755;-33.398;-70.572;2023-02-10T13:45:52;72.70;;;52.50;;
74335;SDS011;62755;-33.398;-70.572;2023-02-10T13:48:45;73.25;;;52.00;;
74335;SDS011;62755;-33.398;-70.572;2023-02-10T13:51:40;69.88;;;53.20;;
74335;SDS011;62755;-33.398;-70.572;2023-02-10T13:54:30;69.43;;;52.70;;
74335;SDS011;62755;-33.398;-70.572;2023-02-10T13:57:25;83.43;;;58.33;;
74335;SDS011;62755;-33.398;-70.572;2023-02-10T14:00:17;73.25;;;56.25;;
74335;SDS011;62755;-33.398;-70.572;2023-02-10T14:03:19;75.90;;;55.60;;
74335;SDS011;62755;-33.398;-70.572;2023-02-10T14:06:12;75.95;;;54.45;;
74335;SDS011;62755;-33.398;-70.572;2023-02-10T14:09:02;82.65;;;54.42;;
74335;SDS011;62755;-33.398;-70.572;2023-02-10T14:11:54;73.97;;;54.60;;
74335;SDS011;62755;-33.398;-70.572;2023-02-10T14:14:45;87.40;;;59.63;;
74335;SDS011;62755;-33.398;-70.572;2023-02-10T14:17:34;80.10;;;60.50;;
74335;SDS011;62755;-33.398;-70.572;2023-02-10T14:20:26;91.90;;;69.20;;
74335;SDS011;62755;-33.398;-70.572;2023-02-10T14:23:20;91.97;;;69.70;;
74335;SDS011;62755;-33.398;-70.572;2023-02-10T14:26:13;94.90;;;68.28;;
74335;SDS011;62755;-33.398;-70.572;2023-02-10T14:29:08;89.40;;;65.93;;
74335;SDS011;62755;-33.398;-70.572;2023-02-10T14:32:02;86.45;;;65.50;;
74335;SDS011;62755;-33.398;-70.572;2023-02-10T14:34:53;86.32;;;64.72;;
74335;SDS011;62755;-33.398;-70.572;2023-02-10T14:37:48;93.18;;;69.53;;
74335;SDS011;62755;-33.398;-70.572;2023-02-10T14:40:39;92.50;;;68.38;;
74335;SDS011;62755;-33.398;-70.572;2023-02-10T14:43:34;87.00;;;67.63;;
74335;SDS011;62755;-33.398;-70.572;2023-02-10T14:46:25;93.85;;;68.85;;
74335;SDS011;62755;-33.398;-70.572;2023-02-10T14:49:18;87.82;;;67.57;;
74335;SDS011;62755;-33.398;-70.572;2023-02-10T14:52:18;87.15;;;64.95;;
74335;SDS011;62755;-33.398;-70.572;2023-02-10T14:55:27;77.53;;;60.80;;
74335;SDS011;62755;-33.398;-70.572;2023-02-10T14:58:19;80.88;;;61.97;;
74335;SDS011;62755;-33.398;-70.572;2023-02-10T15:01:13;83.57;;;59.70;;
74335;SDS011;62755;-33.398;-70.572;2023-02-10T15:04:07;75.13;;;60.50;;
74335;SDS011;62755;-33.398;-70.572;2023-02-10T15:07:03;79.20;;;59.53;;
74335;SDS011;62755;-33.398;-70.572;2023-02-10T15:09:52;77.32;;;58.60;;
74335;SDS011;62755;-33.398;-70.572;2023-02-10T15:12:45;72.28;;;56.58;;
74335;SDS011;62755;-33.398;-70.572;2023-02-10T15:15:37;72.90;;;54.28;;
74335;SDS011;62755;-33.398;-70.572;2023-02-10T15:18:32;74.57;;;53.88;;
74335;SDS011;62755;-33.398;-70.572;2023-02-10T15:21:31;68.25;;;52.22;;
74335;SDS011;62755;-33.398;-70.572;2023-02-10T15:24:25;63.67;;;50.97;;
74335;SDS011;62755;-33.398;-70.572;2023-02-10T15:27:16;74.10;;;53.17;;
74335;SDS011;62755;-33.398;-70.572;2023-02-10T15:30:06;64.80;;;49.78;;
74335;SDS011;62755;-33.398;-70.572;2023-02-10T15:32:58;67.63;;;52.05;;
74335;SDS011;62755;-33.398;-70.572;2023-02-10T15:35:51;70.63;;;51.95;;
74335;SDS011;62755;-33.398;-70.572;2023-02-10T15:38:42;74.78;;;52.35;;
74335;SDS011;62755;-33.398;-70.572;2023-02-10T15:41:37;74.65;;;56.80;;
74335;SDS011;62755;-33.398;-70.572;2023-02-10T15:44:36;83.35;;;55.75;;
74335;SDS011;62755;-33.398;-70.572;2023-02-10T15:47:27;79.65;;;56.63;;
74335;SDS011;62755;-33.398;-70.572;2023-02-10T15:50:30;68.88;;;54.22;;
74335;SDS011;62755;-33.398;-70.572;2023-02-10T15:53:20;81.00;;;56.38;;
74335;SDS011;62755;-33.398;-70.572;2023-02-10T15:56:09;80.25;;;57.13;;
74335;SDS011;62755;-33.398;-70.572;2023-02-10T15:58:59;65.28;;;51.97;;
74335;SDS011;62755;-33.398;-70.572;2023-02-10T16:01:48;63.90;;;46.05;;
74335;SDS011;62755;-33.398;-70.572;2023-02-10T16:04:37;59.30;;;45.17;;
74335;SDS011;62755;-33.398;-70.572;2023-02-10T16:07:30;58.75;;;43.90;;
74335;SDS011;62755;-33.398;-70.572;2023-02-10T16:10:20;71.82;;;45.88;;
74335;SDS011;62755;-33.398;-70.572;2023-02-10T16:13:11;59.63;;;43.60;;
74335;SDS011;62755;-33.398;-70.572;2023-02-10T16:16:02;54.53;;;43.70;;
74335;SDS011;62755;-33.398;-70.572;2023-02-10T16:18:53;67.40;;;43.47;;
74335;SDS011;62755;-33.398;-70.572;2023-02-10T16:21:42;52.65;;;42.28;;
74335;SDS011;62755;-33.398;-70.572;2023-02-10T16:24:33;53.95;;;42.20;;